createdAt,value
2019-05-04T00:00:29.188Z,0.00
2019-05-04T00:01:29.160Z,0.00
2019-05-04T00:02:29.166Z,0.00
2019-05-04T00:03:29.126Z,0.00
2019-05-04T00:04:29.109Z,0.00
2019-05-04T00:05:29.084Z,0.00
2019-05-04T00:06:29.077Z,0.00
2019-05-04T00:07:29.083Z,0.00
2019-05-04T00:08:29.037Z,0.00
2019-05-04T00:09:29.015Z,0.00
2019-05-04T00:10:28.998Z,0.00
2019-05-04T00:11:28.987Z,0.00
2019-05-04T00:12:28.984Z,0.00
2019-05-04T00:13:28.949Z,0.00
2019-05-04T00:14:28.922Z,0.00
2019-05-04T00:15:28.900Z,0.00
2019-05-04T00:16:28.887Z,0.00
2019-05-04T00:17:28.898Z,0.00
2019-05-04T00:18:28.852Z,0.00
2019-05-04T00:19:28.833Z,0.00
2019-05-04T00:20:28.818Z,0.00
2019-05-04T00:21:28.799Z,0.00
2019-05-04T00:22:28.800Z,0.00
2019-05-04T00:23:28.760Z,0.00
2019-05-04T00:24:28.750Z,0.00
2019-05-04T00:25:28.720Z,0.00
2019-05-04T00:26:28.697Z,0.00
2019-05-04T00:27:28.710Z,0.00
2019-05-04T00:28:28.663Z,0.00
2019-05-04T00:29:28.648Z,0.00
2019-05-04T00:30:28.638Z,0.00
2019-05-04T00:31:28.614Z,0.00
2019-05-04T00:32:28.724Z,0.00
2019-05-04T00:33:28.582Z,0.00
2019-05-04T00:34:28.552Z,0.00
2019-05-04T00:35:28.537Z,0.00
2019-05-04T00:36:28.524Z,0.00
2019-05-04T00:37:28.500Z,0.00
2019-05-04T00:38:28.504Z,0.00
2019-05-04T00:39:28.471Z,0.00
2019-05-04T00:40:28.453Z,0.00
2019-05-04T00:41:28.422Z,0.00
2019-05-04T00:42:28.413Z,0.00
2019-05-04T00:43:28.534Z,0.00
2019-05-04T00:44:28.379Z,0.00
2019-05-04T00:45:28.349Z,0.00
2019-05-04T00:46:28.342Z,0.00
2019-05-04T00:47:28.315Z,0.00
2019-05-04T00:48:28.303Z,0.00
2019-05-04T00:49:28.280Z,0.00
2019-05-04T00:50:28.262Z,0.00
2019-05-04T00:51:28.249Z,0.00
2019-05-04T00:52:28.238Z,0.00
2019-05-04T00:53:28.232Z,0.00
2019-05-04T00:54:28.213Z,0.00
2019-05-04T00:55:28.178Z,0.00
2019-05-04T00:56:28.156Z,0.00
2019-05-04T00:57:28.133Z,0.00
2019-05-04T00:58:28.122Z,0.00
2019-05-04T00:59:28.123Z,0.00
2019-05-04T01:00:28.111Z,0.00
2019-05-04T01:01:28.059Z,0.00
2019-05-04T01:02:28.035Z,0.00
2019-05-04T01:03:28.028Z,0.00
2019-05-04T01:04:28.065Z,0.00
2019-05-04T01:05:27.982Z,0.00
2019-05-04T01:06:27.966Z,0.00
2019-05-04T01:07:27.952Z,0.00
2019-05-04T01:08:27.937Z,0.00
2019-05-04T01:09:27.916Z,0.00
2019-05-04T01:10:27.919Z,0.00
2019-05-04T01:11:27.882Z,0.00
2019-05-04T01:12:27.862Z,0.00
2019-05-04T01:13:27.838Z,0.00
2019-05-04T01:14:27.820Z,0.00
2019-05-04T01:15:27.831Z,0.00
2019-05-04T01:16:27.794Z,0.00
2019-05-04T01:17:27.769Z,0.00
2019-05-04T01:18:27.751Z,0.00
2019-05-04T01:19:27.739Z,0.00
2019-05-04T01:20:27.735Z,0.00
2019-05-04T01:21:27.693Z,0.00
2019-05-04T01:22:27.675Z,0.00
2019-05-04T01:23:27.653Z,0.00
2019-05-04T01:24:27.644Z,0.00
2019-05-04T01:25:27.650Z,0.00
2019-05-04T01:26:27.608Z,0.00
2019-05-04T01:27:27.588Z,0.00
2019-05-04T01:28:27.571Z,0.00
2019-05-04T01:29:27.556Z,0.00
2019-05-04T01:30:27.557Z,0.00
2019-05-04T01:31:27.510Z,0.00
2019-05-04T01:32:27.497Z,0.00
2019-05-04T01:33:27.474Z,0.00
2019-05-04T01:34:27.458Z,0.00
2019-05-04T01:35:27.462Z,0.00
2019-05-04T01:36:27.453Z,0.00
2019-05-04T01:37:31.981Z,0.00
2019-05-04T01:38:27.378Z,0.00
2019-05-04T01:39:27.355Z,0.00
2019-05-04T01:40:27.375Z,0.00
2019-05-04T01:41:27.334Z,0.00
2019-05-04T01:42:27.311Z,0.00
2019-05-04T01:43:27.290Z,0.00
2019-05-04T01:44:27.271Z,0.00
2019-05-04T01:45:27.255Z,0.00
2019-05-04T01:46:27.237Z,0.00
2019-05-04T01:47:27.221Z,0.00
2019-05-04T01:48:27.195Z,0.00
2019-05-04T01:49:27.178Z,0.00
2019-05-04T01:50:27.161Z,0.00
2019-05-04T01:51:27.145Z,0.00
2019-05-04T01:52:27.125Z,0.00
2019-05-04T01:53:27.106Z,0.00
2019-05-04T01:54:27.084Z,0.00
2019-05-04T01:55:27.068Z,0.00
2019-05-04T01:56:27.053Z,0.00
2019-05-04T01:57:27.062Z,0.00
2019-05-04T01:58:27.009Z,0.00
2019-05-04T01:59:27.000Z,0.00
2019-05-04T02:00:26.969Z,0.00
2019-05-04T02:01:26.987Z,0.00
2019-05-04T02:02:26.937Z,0.00
2019-05-04T02:03:26.953Z,0.00
2019-05-04T02:04:26.903Z,0.00
2019-05-04T02:05:26.886Z,0.00
2019-05-04T02:06:26.861Z,0.00
2019-05-04T02:07:26.851Z,0.00
2019-05-04T02:08:26.856Z,0.00
2019-05-04T02:09:26.806Z,0.00
2019-05-04T02:10:26.797Z,0.00
2019-05-04T02:11:26.775Z,0.00
2019-05-04T02:12:26.752Z,0.00
2019-05-04T02:13:26.758Z,0.00
2019-05-04T02:14:26.715Z,0.00
2019-05-04T02:15:26.702Z,0.00
2019-05-04T02:16:26.676Z,0.00
2019-05-04T02:17:26.802Z,0.00
2019-05-04T02:18:26.652Z,0.00
2019-05-04T02:19:28.092Z,0.00
2019-05-04T02:20:26.615Z,0.00
2019-05-04T02:21:26.594Z,0.00
2019-05-04T02:22:26.578Z,0.00
2019-05-04T02:23:26.575Z,0.00
2019-05-04T02:24:26.532Z,0.00
2019-05-04T02:25:26.521Z,0.00
2019-05-04T02:26:26.499Z,0.00
2019-05-04T02:27:26.476Z,0.00
2019-05-04T02:28:26.467Z,0.00
2019-05-04T02:29:26.470Z,0.00
2019-05-04T02:30:26.595Z,0.00
2019-05-04T02:31:26.574Z,0.00
2019-05-04T02:32:26.387Z,0.00
2019-05-04T02:33:26.374Z,0.00
2019-05-04T02:34:26.689Z,0.00
2019-05-04T02:35:26.751Z,0.00
2019-05-04T02:36:26.308Z,0.00
2019-05-04T02:37:27.699Z,0.00
2019-05-04T02:38:27.055Z,0.00
2019-05-04T02:39:26.402Z,0.00
2019-05-04T02:40:32.968Z,0.00
2019-05-04T02:41:26.220Z,0.00
2019-05-04T02:42:26.199Z,0.00
2019-05-04T02:43:26.192Z,0.00
2019-05-04T02:44:26.741Z,0.00
2019-05-04T02:45:26.667Z,0.00
2019-05-04T02:46:26.126Z,0.00
2019-05-04T02:47:26.386Z,0.00
2019-05-04T02:48:26.087Z,0.00
2019-05-04T02:49:26.832Z,0.00
2019-05-04T02:50:26.086Z,0.00
2019-05-04T02:51:26.038Z,0.00
2019-05-04T02:52:28.762Z,0.00
2019-05-04T02:53:26.132Z,0.00
2019-05-04T02:54:26.020Z,0.00
2019-05-04T02:55:26.114Z,0.00
2019-05-04T02:56:26.074Z,0.00
2019-05-04T02:57:26.152Z,0.00
2019-05-04T02:58:33.973Z,0.00
2019-05-04T02:59:25.886Z,0.00
2019-05-04T03:00:26.519Z,0.00
2019-05-04T03:01:25.861Z,0.00
2019-05-04T03:02:25.844Z,0.00
2019-05-04T03:03:25.810Z,0.00
2019-05-04T03:04:27.732Z,0.00
2019-05-04T03:05:26.348Z,0.00
2019-05-04T03:06:25.846Z,0.00
2019-05-04T03:07:26.344Z,0.00
2019-05-04T03:08:33.536Z,0.00
2019-05-04T03:09:25.701Z,0.00
2019-05-04T03:10:26.564Z,0.00
2019-05-04T03:11:25.864Z,0.00
2019-05-04T03:12:26.117Z,0.00
2019-05-04T03:13:25.800Z,0.00
2019-05-04T03:14:26.290Z,0.00
2019-05-04T03:15:26.582Z,0.00
2019-05-04T03:16:40.549Z,0.00
2019-05-04T03:17:25.767Z,0.00
2019-05-04T03:18:26.056Z,0.00
2019-05-04T03:19:25.529Z,0.00
2019-05-04T03:20:25.969Z,0.00
2019-05-04T03:21:25.652Z,0.00
2019-05-04T03:22:26.142Z,0.00
2019-05-04T03:23:25.985Z,0.00
2019-05-04T03:24:25.422Z,0.00
2019-05-04T03:25:26.010Z,0.00
2019-05-04T03:26:26.264Z,0.00
2019-05-04T03:27:25.393Z,0.00
2019-05-04T03:28:25.582Z,0.00
2019-05-04T03:29:26.300Z,4.00
2019-05-04T03:30:28.110Z,0.00
2019-05-04T03:31:27.780Z,0.00
2019-05-04T03:32:29.511Z,0.00
2019-05-04T03:33:28.567Z,4.00
2019-05-04T03:34:45.448Z,0.00
2019-05-04T03:35:34.538Z,0.00
2019-05-04T03:36:32.171Z,4.00
2019-05-04T03:37:25.548Z,0.00
2019-05-04T03:38:27.684Z,4.00
2019-05-04T03:39:26.111Z,4.00
2019-05-04T03:40:26.138Z,4.00
2019-05-04T03:41:25.803Z,4.00
2019-05-04T03:42:26.416Z,4.00
2019-05-04T03:43:25.922Z,4.00
2019-05-04T03:44:25.578Z,8.00
2019-05-04T03:45:25.807Z,4.00
2019-05-04T03:46:26.270Z,4.00
2019-05-04T03:47:25.259Z,8.00
2019-05-04T03:48:25.165Z,12.00
2019-05-04T03:49:25.893Z,12.00
2019-05-04T03:50:26.468Z,8.00
2019-05-04T03:51:25.949Z,12.00
2019-05-04T03:52:26.005Z,12.00
2019-05-04T03:53:25.490Z,12.00
2019-05-04T03:54:25.587Z,12.00
2019-05-04T03:55:26.322Z,16.00
2019-05-04T03:56:25.531Z,16.00
2019-05-04T03:57:24.954Z,20.00
2019-05-04T03:58:25.324Z,16.00
2019-05-04T03:59:25.469Z,24.00
2019-05-04T04:00:25.734Z,24.00
2019-05-04T04:01:26.113Z,28.00
2019-05-04T04:02:26.001Z,24.00
2019-05-04T04:03:26.328Z,28.00
2019-05-04T04:04:26.088Z,32.00
2019-05-04T04:05:25.709Z,32.00
2019-05-04T04:06:25.410Z,36.00
2019-05-04T04:07:25.523Z,40.00
2019-05-04T04:08:25.004Z,44.00
2019-05-04T04:09:25.543Z,48.00
2019-05-04T04:10:25.736Z,48.00
2019-05-04T04:11:25.501Z,52.00
2019-05-04T04:12:25.241Z,56.00
2019-05-04T04:13:26.108Z,60.00
2019-05-04T04:14:25.713Z,68.00
2019-05-04T04:15:26.482Z,68.00
2019-05-04T04:16:26.151Z,76.00
2019-05-04T04:17:25.329Z,80.00
2019-05-04T04:18:25.247Z,84.00
2019-05-04T04:19:25.672Z,92.00
2019-05-04T04:20:25.734Z,96.00
2019-05-04T04:21:26.363Z,100.00
2019-05-04T04:22:25.874Z,108.00
2019-05-04T04:23:25.106Z,116.00
2019-05-04T04:24:25.526Z,120.00
2019-05-04T04:25:25.800Z,124.00
2019-05-04T04:26:25.893Z,128.00
2019-05-04T04:27:25.747Z,136.00
2019-05-04T04:28:28.801Z,148.00
2019-05-04T04:29:26.485Z,152.00
2019-05-04T04:30:25.954Z,164.00
2019-05-04T04:31:26.163Z,176.00
2019-05-04T04:32:25.673Z,184.00
2019-05-04T04:33:25.442Z,196.00
2019-05-04T04:34:26.004Z,204.00
2019-05-04T04:35:26.515Z,216.00
2019-05-04T04:36:25.887Z,224.00
2019-05-04T04:37:25.290Z,236.00
2019-05-04T04:38:26.220Z,248.00
2019-05-04T04:39:33.569Z,260.00
2019-05-04T04:40:25.805Z,268.00
2019-05-04T04:41:25.421Z,272.00
2019-05-04T04:42:25.237Z,276.00
2019-05-04T04:43:25.639Z,280.00
2019-05-04T04:44:26.480Z,292.00
2019-05-04T04:45:25.659Z,304.00
2019-05-04T04:46:25.617Z,316.00
2019-05-04T04:47:25.645Z,332.00
2019-05-04T04:48:28.995Z,336.00
2019-05-04T04:49:25.705Z,348.00
2019-05-04T04:50:25.436Z,360.00
2019-05-04T04:51:26.401Z,376.00
2019-05-04T04:52:25.956Z,384.00
2019-05-04T04:53:25.663Z,388.00
2019-05-04T04:54:25.979Z,400.00
2019-05-04T04:55:27.606Z,412.00
2019-05-04T04:56:25.995Z,412.00
2019-05-04T04:57:25.874Z,420.00
2019-05-04T04:58:25.815Z,440.00
2019-05-04T04:59:25.395Z,452.00
2019-05-04T05:00:25.557Z,468.00
2019-05-04T05:01:25.464Z,488.00
2019-05-04T05:02:41.477Z,500.00
2019-05-04T05:03:25.789Z,504.00
2019-05-04T05:04:25.663Z,508.00
2019-05-04T05:05:25.707Z,520.00
2019-05-04T05:06:25.814Z,532.00
2019-05-04T05:07:25.379Z,536.00
2019-05-04T05:08:24.945Z,564.00
2019-05-04T05:09:26.582Z,600.00
2019-05-04T05:10:25.589Z,640.00
2019-05-04T05:11:25.683Z,684.00
2019-05-04T05:12:25.572Z,680.00
2019-05-04T05:13:25.031Z,684.00
2019-05-04T05:14:24.712Z,740.00
2019-05-04T05:15:24.831Z,772.00
2019-05-04T05:16:25.221Z,780.00
2019-05-04T05:17:24.174Z,796.00
2019-05-04T05:18:24.314Z,808.00
2019-05-04T05:19:24.366Z,812.00
2019-05-04T05:20:25.034Z,812.00
2019-05-04T05:21:25.073Z,824.00
2019-05-04T05:22:24.804Z,856.00
2019-05-04T05:23:24.615Z,904.00
2019-05-04T05:24:24.997Z,904.00
2019-05-04T05:25:24.770Z,904.00
2019-05-04T05:26:24.708Z,932.00
2019-05-04T05:27:25.200Z,908.00
2019-05-04T05:28:25.075Z,916.00
2019-05-04T05:29:25.150Z,988.00
2019-05-04T05:30:24.817Z,1032.00
2019-05-04T05:31:24.149Z,1012.00
2019-05-04T05:32:25.163Z,1024.00
2019-05-04T05:33:24.831Z,968.00
2019-05-04T05:34:24.822Z,932.00
2019-05-04T05:35:24.783Z,936.00
2019-05-04T05:36:24.317Z,984.00
2019-05-04T05:37:25.102Z,992.00
2019-05-04T05:38:24.473Z,1008.00
2019-05-04T05:39:24.959Z,968.00
2019-05-04T05:40:24.456Z,956.00
2019-05-04T05:41:24.084Z,948.00
2019-05-04T05:42:24.876Z,948.00
2019-05-04T05:43:24.519Z,972.00
2019-05-04T05:44:24.887Z,968.00
2019-05-04T05:45:24.529Z,944.00
2019-05-04T05:46:24.387Z,988.00
2019-05-04T05:47:24.212Z,992.00
2019-05-04T05:48:24.769Z,936.00
2019-05-04T05:49:24.580Z,888.00
2019-05-04T05:50:24.286Z,856.00
2019-05-04T05:51:24.566Z,840.00
2019-05-04T05:52:24.404Z,856.00
2019-05-04T05:53:24.376Z,912.00
2019-05-04T05:54:24.527Z,924.00
2019-05-04T05:55:27.322Z,860.00
2019-05-04T05:56:24.588Z,808.00
2019-05-04T05:57:22.591Z,944.00
2019-05-04T05:58:26.119Z,868.00
2019-05-04T05:59:25.739Z,816.00
2019-05-04T06:00:24.746Z,748.00
2019-05-04T06:01:25.614Z,772.00
2019-05-04T06:02:22.497Z,744.00
2019-05-04T06:03:23.966Z,796.00
2019-05-04T06:04:24.365Z,860.00
2019-05-04T06:05:23.534Z,892.00
2019-05-04T06:06:22.439Z,852.00
2019-05-04T06:07:27.569Z,864.00
2019-05-04T06:08:22.384Z,928.00
2019-05-04T06:09:25.167Z,972.00
2019-05-04T06:10:27.743Z,956.00
2019-05-04T06:11:24.494Z,1008.00
2019-05-04T06:12:22.309Z,1012.00
2019-05-04T06:13:24.357Z,1068.00
2019-05-04T06:14:22.277Z,1128.00
2019-05-04T06:15:24.419Z,1144.00
2019-05-04T06:16:22.266Z,1136.00
2019-05-04T06:17:22.220Z,1156.00
2019-05-04T06:18:22.196Z,1148.00
2019-05-04T06:19:22.180Z,1144.00
2019-05-04T06:20:24.230Z,1136.00
2019-05-04T06:21:22.177Z,1132.00
2019-05-04T06:22:24.005Z,1196.00
2019-05-04T06:23:24.436Z,1184.00
2019-05-04T06:24:22.084Z,1208.00
2019-05-04T06:25:22.073Z,1196.00
2019-05-04T06:26:26.480Z,1208.00
2019-05-04T06:27:22.101Z,1204.00
2019-05-04T06:28:25.222Z,1240.00
2019-05-04T06:29:21.995Z,1252.00
2019-05-04T06:30:26.373Z,1344.00
2019-05-04T06:31:21.960Z,1420.00
2019-05-04T06:32:24.846Z,1260.00
2019-05-04T06:33:21.923Z,1236.00
2019-05-04T06:34:25.894Z,1236.00
2019-05-04T06:35:21.889Z,1300.00
2019-05-04T06:36:21.864Z,1276.00
2019-05-04T06:37:25.069Z,1252.00
2019-05-04T06:38:21.830Z,1220.00
2019-05-04T06:39:26.249Z,1180.00
2019-05-04T06:40:35.295Z,1168.00
2019-05-04T06:41:25.815Z,936.00
2019-05-04T06:42:21.781Z,1400.00
2019-05-04T06:43:21.734Z,1660.00
2019-05-04T06:44:24.876Z,1504.00
2019-05-04T06:45:21.706Z,1512.00
2019-05-04T06:46:21.682Z,1376.00
2019-05-04T06:47:21.717Z,2288.00
2019-05-04T06:48:26.073Z,2160.00
2019-05-04T06:49:21.635Z,2056.00
2019-05-04T06:50:26.023Z,2000.00
2019-05-04T06:51:21.595Z,2468.00
2019-05-04T06:52:26.162Z,1608.00
2019-05-04T06:53:32.424Z,1680.00
2019-05-04T06:54:24.561Z,1016.00
2019-05-04T06:55:21.511Z,1512.00
2019-05-04T06:56:27.884Z,1928.00
2019-05-04T06:57:22.370Z,1588.00
2019-05-04T06:58:21.465Z,1896.00
2019-05-04T06:59:23.343Z,1816.00
2019-05-04T07:00:21.435Z,1436.00
2019-05-04T07:01:21.411Z,1520.00
2019-05-04T07:02:21.390Z,2404.00
2019-05-04T07:03:21.391Z,1888.00
2019-05-04T07:04:21.346Z,1548.00
2019-05-04T07:05:21.326Z,2152.00
2019-05-04T07:06:21.306Z,2188.00
2019-05-04T07:07:22.180Z,1388.00
2019-05-04T07:08:29.973Z,2040.00
2019-05-04T07:09:25.113Z,2196.00
2019-05-04T07:10:21.242Z,2032.00
2019-05-04T07:11:29.101Z,1964.00
2019-05-04T07:12:25.919Z,1668.00
2019-05-04T07:13:27.486Z,1984.00
2019-05-04T07:14:21.199Z,1596.00
2019-05-04T07:15:21.142Z,2040.00
2019-05-04T07:16:21.129Z,1404.00
2019-05-04T07:17:21.103Z,1268.00
2019-05-04T07:18:21.115Z,1216.00
2019-05-04T07:19:22.628Z,1276.00
2019-05-04T07:20:21.079Z,2196.00
2019-05-04T07:21:23.690Z,2276.00
2019-05-04T07:22:21.016Z,2244.00
2019-05-04T07:23:21.002Z,2728.00
2019-05-04T07:24:20.979Z,2604.00
2019-05-04T07:25:20.990Z,2840.00
2019-05-04T07:26:20.945Z,3036.00
2019-05-04T07:27:20.924Z,2616.00
2019-05-04T07:28:20.903Z,2252.00
2019-05-04T07:29:20.919Z,3044.00
2019-05-04T07:30:20.870Z,2708.00
2019-05-04T07:31:20.877Z,2824.00
2019-05-04T07:32:20.827Z,2032.00
2019-05-04T07:33:20.821Z,2016.00
2019-05-04T07:34:20.797Z,3200.00
2019-05-04T07:35:26.207Z,3224.00
2019-05-04T07:36:20.787Z,2712.00
2019-05-04T07:37:24.885Z,2720.00
2019-05-04T07:38:20.723Z,3172.00
2019-05-04T07:39:20.702Z,3260.00
2019-05-04T07:40:27.553Z,3068.00
2019-05-04T07:41:39.782Z,2840.00
2019-05-04T07:42:29.308Z,2716.00
2019-05-04T07:43:23.101Z,1944.00
2019-05-04T07:44:20.608Z,1980.00
2019-05-04T07:45:26.214Z,2524.00
2019-05-04T07:46:20.612Z,2476.00
2019-05-04T07:47:27.237Z,2500.00
2019-05-04T07:48:20.541Z,2512.00
2019-05-04T07:49:27.203Z,3792.00
2019-05-04T07:50:20.502Z,4156.00
2019-05-04T07:51:20.511Z,3032.00
2019-05-04T07:52:27.162Z,3472.00
2019-05-04T07:53:20.453Z,3084.00
2019-05-04T07:54:25.124Z,2632.00
2019-05-04T07:55:20.422Z,2504.00
2019-05-04T07:56:20.424Z,2564.00
2019-05-04T07:57:24.900Z,3128.00
2019-05-04T07:58:20.360Z,3392.00
2019-05-04T07:59:27.507Z,2320.00
2019-05-04T08:00:20.333Z,2268.00
2019-05-04T08:01:24.979Z,2400.00
2019-05-04T08:02:20.295Z,2260.00
2019-05-04T08:03:27.424Z,2952.00
2019-05-04T08:04:20.282Z,3180.00
2019-05-04T08:05:26.376Z,4168.00
2019-05-04T08:06:20.223Z,3400.00
2019-05-04T08:07:20.211Z,3876.00
2019-05-04T08:08:20.235Z,4064.00
2019-05-04T08:09:20.927Z,3856.00
2019-05-04T08:10:20.685Z,4440.00
2019-05-04T08:11:20.140Z,3792.00
2019-05-04T08:12:20.120Z,3320.00
2019-05-04T08:13:20.519Z,3276.00
2019-05-04T08:14:20.115Z,2568.00
2019-05-04T08:15:20.066Z,2700.00
2019-05-04T08:16:20.052Z,1660.00
2019-05-04T08:17:20.031Z,1596.00
2019-05-04T08:18:21.228Z,1544.00
2019-05-04T08:19:19.991Z,1560.00
2019-05-04T08:20:21.226Z,1416.00
2019-05-04T08:21:19.952Z,1416.00
2019-05-04T08:22:20.523Z,1636.00
2019-05-04T08:23:19.922Z,2364.00
2019-05-04T08:24:27.376Z,3332.00
2019-05-04T08:25:19.896Z,3080.00
2019-05-04T08:26:24.320Z,3516.00
2019-05-04T08:27:19.852Z,3376.00
2019-05-04T08:28:19.829Z,2528.00
2019-05-04T08:29:23.202Z,2452.00
2019-05-04T08:30:19.793Z,2516.00
2019-05-04T08:31:24.388Z,2728.00
2019-05-04T08:32:19.761Z,2800.00
2019-05-04T08:33:20.040Z,3820.00
2019-05-04T08:34:19.730Z,4924.00
2019-05-04T08:35:20.338Z,5216.00
2019-05-04T08:36:19.698Z,4100.00
2019-05-04T08:37:22.131Z,3604.00
2019-05-04T08:38:19.653Z,4800.00
2019-05-04T08:39:20.188Z,1760.00
2019-05-04T08:40:19.641Z,1692.00
2019-05-04T08:41:19.598Z,1796.00
2019-05-04T08:42:27.298Z,7768.00
2019-05-04T08:43:19.562Z,5612.00
2019-05-04T08:44:19.544Z,5004.00
2019-05-04T08:45:20.784Z,6104.00
2019-05-04T08:46:19.508Z,5228.00
2019-05-04T08:47:19.500Z,2084.00
2019-05-04T08:48:19.480Z,2260.00
2019-05-04T08:49:29.075Z,2344.00
2019-05-04T08:50:19.440Z,6064.00
2019-05-04T08:51:19.967Z,12200.00
2019-05-04T08:52:21.807Z,8780.00
2019-05-04T08:53:19.413Z,13984.00
2019-05-04T08:54:20.773Z,18944.00
2019-05-04T08:55:19.352Z,22144.00
2019-05-04T08:56:22.586Z,33056.00
2019-05-04T08:57:19.321Z,40064.00
2019-05-04T08:58:25.094Z,3612.00
2019-05-04T08:59:19.296Z,21312.00
2019-05-04T09:00:21.437Z,28096.00
2019-05-04T09:01:19.252Z,14112.00
2019-05-04T09:02:19.241Z,22496.00
2019-05-04T09:03:20.736Z,15200.00
2019-05-04T09:04:25.255Z,35360.00
2019-05-04T09:05:28.069Z,45568.00
2019-05-04T09:06:30.289Z,48256.00
2019-05-04T09:07:23.302Z,46816.00
2019-05-04T09:08:19.173Z,61568.00
2019-05-04T09:09:20.846Z,42272.00
2019-05-04T09:10:19.140Z,57760.00
2019-05-04T09:11:19.386Z,58080.00
2019-05-04T09:12:27.181Z,75456.00
2019-05-04T09:13:19.066Z,46880.00
2019-05-04T09:14:29.668Z,32992.00
2019-05-04T09:15:19.097Z,20288.00
2019-05-04T09:16:19.018Z,42624.00
2019-05-04T09:17:19.967Z,72032.00
2019-05-04T09:18:18.984Z,3148.00
2019-05-04T09:19:19.444Z,3492.00
2019-05-04T09:20:18.967Z,4300.00
2019-05-04T09:21:19.680Z,3188.00
2019-05-04T09:22:23.634Z,3528.00
2019-05-04T09:23:19.246Z,7748.00
2019-05-04T09:24:18.906Z,9932.00
2019-05-04T09:25:19.719Z,5904.00
2019-05-04T09:26:18.878Z,2956.00
2019-05-04T09:27:20.113Z,2308.00
2019-05-04T09:28:18.864Z,2004.00
2019-05-04T09:29:22.684Z,1748.00
2019-05-04T09:30:20.657Z,1688.00
2019-05-04T09:31:18.803Z,1700.00
2019-05-04T09:32:31.075Z,1532.00
2019-05-04T09:33:29.736Z,1472.00
2019-05-04T09:34:19.212Z,1564.00
2019-05-04T09:35:18.789Z,1872.00
2019-05-04T09:36:18.717Z,2484.00
2019-05-04T09:37:18.700Z,3128.00
2019-05-04T09:38:23.830Z,6692.00
2019-05-04T09:39:22.771Z,81248.00
2019-05-04T09:40:18.646Z,76128.00
2019-05-04T09:41:18.766Z,74976.00
2019-05-04T09:42:30.750Z,74400.00
2019-05-04T09:43:21.440Z,51968.00
2019-05-04T09:44:18.587Z,65664.00
2019-05-04T09:45:19.429Z,65184.00
2019-05-04T09:46:18.561Z,64864.00
2019-05-04T09:47:20.684Z,65088.00
2019-05-04T09:48:18.527Z,70464.00
2019-05-04T09:49:19.977Z,6596.00
2019-05-04T09:50:20.784Z,6880.00
2019-05-04T09:51:26.444Z,5240.00
2019-05-04T09:52:18.476Z,3596.00
2019-05-04T09:53:22.199Z,4132.00
2019-05-04T09:54:18.450Z,7476.00
2019-05-04T09:55:18.443Z,61696.00
2019-05-04T09:56:20.281Z,6396.00
2019-05-04T09:57:18.422Z,17952.00
2019-05-04T09:58:28.990Z,7436.00
2019-05-04T09:59:18.392Z,7020.00
2019-05-04T10:00:18.372Z,35136.00
2019-05-04T10:01:18.393Z,30304.00
2019-05-04T10:02:18.342Z,48448.00
2019-05-04T10:03:18.332Z,50080.00
2019-05-04T10:04:18.317Z,59264.00
2019-05-04T10:05:25.477Z,19360.00
2019-05-04T10:06:29.719Z,70496.00
2019-05-04T10:07:18.274Z,17344.00
2019-05-04T10:08:18.264Z,69920.00
2019-05-04T10:09:18.252Z,64864.00
2019-05-04T10:10:18.240Z,36352.00
2019-05-04T10:11:18.225Z,59200.00
2019-05-04T10:12:18.218Z,26528.00
2019-05-04T10:13:18.191Z,8240.00
2019-05-04T10:14:18.209Z,4576.00
2019-05-04T10:15:18.170Z,3400.00
2019-05-04T10:16:18.183Z,2436.00
2019-05-04T10:17:18.164Z,2212.00
2019-05-04T10:18:18.132Z,2220.00
2019-05-04T10:19:18.115Z,2300.00
2019-05-04T10:20:18.212Z,2396.00
2019-05-04T10:21:18.086Z,2248.00
2019-05-04T10:22:18.086Z,1816.00
2019-05-04T10:23:18.056Z,1552.00
2019-05-04T10:24:18.041Z,1464.00
2019-05-04T10:25:18.023Z,1488.00
2019-05-04T10:26:18.017Z,1484.00
2019-05-04T10:27:18.022Z,1592.00
2019-05-04T10:28:17.969Z,1720.00
2019-05-04T10:29:17.963Z,1984.00
2019-05-04T10:30:17.943Z,2292.00
2019-05-04T10:31:17.927Z,3456.00
2019-05-04T10:32:17.938Z,6936.00
2019-05-04T10:33:17.894Z,17408.00
2019-05-04T10:34:17.876Z,11140.00
2019-05-04T10:35:17.860Z,15808.00
2019-05-04T10:36:17.835Z,11672.00
2019-05-04T10:37:17.859Z,13116.00
2019-05-04T10:38:17.809Z,14528.00
2019-05-04T10:39:17.794Z,14528.00
2019-05-04T10:40:17.769Z,21536.00
2019-05-04T10:41:17.753Z,23104.00
2019-05-04T10:42:17.771Z,27712.00
2019-05-04T10:43:17.727Z,33216.00
2019-05-04T10:44:17.703Z,8708.00
2019-05-04T10:45:19.130Z,14356.00
2019-05-04T10:46:17.671Z,37216.00
2019-05-04T10:47:17.676Z,38592.00
2019-05-04T10:48:17.634Z,46976.00
2019-05-04T10:49:17.615Z,27456.00
2019-05-04T10:50:17.607Z,27072.00
2019-05-04T10:51:17.585Z,20224.00
2019-05-04T10:52:17.607Z,22656.00
2019-05-04T10:53:17.561Z,3080.00
2019-05-04T10:54:17.534Z,4644.00
2019-05-04T10:55:17.517Z,2948.00
2019-05-04T10:56:17.502Z,3452.00
2019-05-04T10:57:17.492Z,4280.00
2019-05-04T10:58:17.472Z,12608.00
2019-05-04T10:59:18.880Z,25088.00
2019-05-04T11:00:17.444Z,18848.00
2019-05-04T11:01:17.427Z,20096.00
2019-05-04T11:02:17.446Z,44768.00
2019-05-04T11:03:17.424Z,19200.00
2019-05-04T11:04:17.375Z,73088.00
2019-05-04T11:05:17.383Z,26656.00
2019-05-04T11:06:17.346Z,46048.00
2019-05-04T11:07:17.462Z,22240.00
2019-05-04T11:08:17.321Z,28640.00
2019-05-04T11:09:17.298Z,44032.00
2019-05-04T11:10:17.286Z,43200.00
2019-05-04T11:11:23.011Z,16416.00
2019-05-04T11:12:17.244Z,117952.00
2019-05-04T11:13:20.228Z,103712.00
2019-05-04T11:14:17.255Z,29472.00
2019-05-04T11:15:17.203Z,98848.00
2019-05-04T11:16:17.200Z,109376.00
2019-05-04T11:17:17.172Z,15200.00
2019-05-04T11:18:17.220Z,41408.00
2019-05-04T11:19:17.150Z,10336.00
2019-05-04T11:20:17.133Z,54688.00
2019-05-04T11:21:17.123Z,19744.00
2019-05-04T11:22:17.102Z,5532.00
2019-05-04T11:23:17.101Z,5280.00
2019-05-04T11:24:17.106Z,8684.00
2019-05-04T11:25:17.061Z,50752.00
2019-05-04T11:26:17.048Z,11020.00
2019-05-04T11:27:17.037Z,9532.00
2019-05-04T11:28:17.046Z,15072.00
2019-05-04T11:29:17.026Z,12320.00
2019-05-04T11:30:16.998Z,105184.00
2019-05-04T11:31:16.975Z,6224.00
2019-05-04T11:32:16.962Z,5252.00
2019-05-04T11:33:16.974Z,3760.00
2019-05-04T11:34:16.944Z,3568.00
2019-05-04T11:35:16.926Z,2796.00
2019-05-04T11:36:16.907Z,2324.00
2019-05-04T11:37:16.891Z,1744.00
2019-05-04T11:38:16.876Z,1420.00
2019-05-04T11:39:16.882Z,1272.00
2019-05-04T11:40:16.838Z,1236.00
2019-05-04T11:41:16.833Z,1332.00
2019-05-04T11:42:16.811Z,1160.00
2019-05-04T11:43:28.975Z,1208.00
2019-05-04T11:44:16.779Z,1084.00
2019-05-04T11:45:16.763Z,864.00
2019-05-04T11:46:16.749Z,712.00
2019-05-04T11:47:16.723Z,552.00
2019-05-04T11:48:16.732Z,436.00
2019-05-04T11:49:16.684Z,332.00
2019-05-04T11:50:16.675Z,332.00
2019-05-04T11:51:16.698Z,360.00
2019-05-04T11:52:16.710Z,416.00
2019-05-04T11:53:18.775Z,484.00
2019-05-04T11:54:16.686Z,592.00
2019-05-04T11:55:16.629Z,716.00
2019-05-04T11:56:17.004Z,952.00
2019-05-04T11:57:16.610Z,1264.00
2019-05-04T11:58:16.537Z,1556.00
2019-05-04T11:59:16.582Z,1772.00
2019-05-04T12:00:16.494Z,2004.00
2019-05-04T12:01:16.514Z,2284.00
2019-05-04T12:02:16.503Z,2840.00
2019-05-04T12:03:16.694Z,3984.00
2019-05-04T12:04:16.421Z,5496.00
2019-05-04T12:05:16.405Z,7016.00
2019-05-04T12:06:16.413Z,7592.00
2019-05-04T12:07:16.378Z,7584.00
2019-05-04T12:08:16.381Z,7544.00
2019-05-04T12:09:16.340Z,6596.00
2019-05-04T12:10:16.314Z,5796.00
2019-05-04T12:11:16.321Z,5232.00
2019-05-04T12:12:16.281Z,35616.00
2019-05-04T12:13:16.266Z,73632.00
2019-05-04T12:14:16.240Z,24608.00
2019-05-04T12:15:16.226Z,7284.00
2019-05-04T12:16:16.349Z,15680.00
2019-05-04T12:17:16.215Z,35968.00
2019-05-04T12:18:16.175Z,3668.00
2019-05-04T12:19:16.152Z,52704.00
2019-05-04T12:20:16.140Z,5096.00
2019-05-04T12:21:18.919Z,41504.00
2019-05-04T12:22:16.117Z,5468.00
2019-05-04T12:23:16.115Z,5044.00
2019-05-04T12:24:16.074Z,9144.00
2019-05-04T12:25:16.057Z,37376.00
2019-05-04T12:26:16.043Z,82208.00
2019-05-04T12:27:17.809Z,84832.00
2019-05-04T12:28:16.006Z,99520.00